createdAt,value
2024-03-07T00:00:45.765Z,100896.08
2024-03-07T00:03:13.050Z,100894.57
2024-03-07T00:05:41.037Z,100894.48
2024-03-07T00:08:08.517Z,100893.19
2024-03-07T00:10:37.501Z,100888.90
2024-03-07T00:13:05.139Z,100886.56
2024-03-07T00:15:32.488Z,100885.25
2024-03-07T00:18:01.473Z,100883.96
2024-03-07T00:20:28.811Z,100883.27
2024-03-07T00:22:56.103Z,100882.90
2024-03-07T00:25:23.603Z,100884.85
2024-03-07T00:27:54.256Z,100889.09
2024-03-07T00:30:21.708Z,100885.95
2024-03-07T00:32:49.481Z,100887.55
2024-03-07T00:35:17.461Z,100886.49
2024-03-07T00:37:45.559Z,100885.84
2024-03-07T00:40:12.927Z,100880.05
2024-03-07T00:42:40.190Z,100878.12
2024-03-07T00:45:07.706Z,100878.28
2024-03-07T00:47:35.274Z,100878.92
2024-03-07T00:50:02.832Z,100878.88
2024-03-07T00:52:30.385Z,100879.55
2024-03-07T00:54:57.594Z,100876.66
2024-03-07T00:57:24.936Z,100877.12
2024-03-07T00:59:52.306Z,100876.92
2024-03-07T01:02:19.848Z,100878.73
2024-03-07T01:04:47.214Z,100878.90
2024-03-07T01:07:14.478Z,100876.23
2024-03-07T01:09:41.962Z,100874.98
2024-03-07T01:12:11.378Z,100876.63
2024-03-07T01:14:38.903Z,100877.77
2024-03-07T01:17:09.172Z,100877.02
2024-03-07T01:19:36.717Z,100875.49
2024-03-07T01:22:04.014Z,100874.41
2024-03-07T01:24:31.443Z,100876.69
2024-03-07T01:27:01.106Z,100873.69
2024-03-07T01:29:29.123Z,100874.04
2024-03-07T01:31:56.523Z,100877.39
2024-03-07T01:34:23.759Z,100874.57
2024-03-07T01:36:51.020Z,100876.87
2024-03-07T01:39:19.130Z,100876.30
2024-03-07T01:41:46.463Z,100874.14
2024-03-07T01:44:13.747Z,100873.41
2024-03-07T01:46:42.905Z,100874.10
2024-03-07T01:49:10.200Z,100876.02
2024-03-07T01:51:37.527Z,100874.61
2024-03-07T01:54:05.066Z,100875.13
2024-03-07T01:56:32.558Z,100875.83
2024-03-07T01:59:00.182Z,100875.50
2024-03-07T02:01:27.660Z,100877.08
2024-03-07T02:03:55.188Z,100876.92
2024-03-07T02:06:22.450Z,100881.86
2024-03-07T02:08:49.743Z,100880.96
2024-03-07T02:11:17.142Z,100881.52
2024-03-07T02:13:44.529Z,100882.02
2024-03-07T02:16:12.197Z,100881.05
2024-03-07T02:18:39.585Z,100879.77
2024-03-07T02:21:08.595Z,100877.62
2024-03-07T02:23:36.142Z,100878.27
2024-03-07T02:26:04.287Z,100877.38
2024-03-07T02:28:31.549Z,100879.84
2024-03-07T02:30:58.823Z,100877.35
2024-03-07T02:33:26.869Z,100880.72
2024-03-07T02:35:54.401Z,100880.52
2024-03-07T02:38:21.901Z,100881.66
2024-03-07T02:40:49.533Z,100875.30
2024-03-07T02:43:17.187Z,100874.23
2024-03-07T02:45:44.477Z,100874.42
2024-03-07T02:48:12.324Z,100875.30
2024-03-07T02:50:40.000Z,100874.23
2024-03-07T02:53:08.258Z,100877.02
2024-03-07T02:55:35.608Z,100873.35
2024-03-07T02:58:02.993Z,100871.98
2024-03-07T03:00:33.322Z,100870.46
2024-03-07T03:03:00.689Z,100867.49
2024-03-07T03:05:28.064Z,100868.79
2024-03-07T03:07:55.899Z,100870.89
2024-03-07T03:10:30.836Z,100869.48
2024-03-07T03:13:00.520Z,100866.35
2024-03-07T03:15:28.461Z,100866.73
2024-03-07T03:17:55.841Z,100865.45
2024-03-07T03:20:26.466Z,100866.65
2024-03-07T03:23:07.612Z,100863.45
2024-03-07T03:25:42.701Z,100865.38
2024-03-07T03:28:11.114Z,100867.95
2024-03-07T03:30:39.485Z,100868.02
2024-03-07T03:33:07.512Z,100869.89
2024-03-07T03:35:35.518Z,100872.85
2024-03-07T03:38:02.955Z,100876.19
2024-03-07T03:40:30.340Z,100879.33
2024-03-07T03:42:57.755Z,100880.17
2024-03-07T03:45:26.461Z,100887.17
2024-03-07T03:47:54.186Z,100886.12
2024-03-07T03:50:24.298Z,100887.90
2024-03-07T03:52:51.778Z,100888.85
2024-03-07T03:55:19.171Z,100885.05
2024-03-07T03:59:45.623Z,100892.02
2024-03-07T04:02:13.435Z,100894.16
2024-03-07T04:04:41.334Z,100890.19
2024-03-07T04:07:08.594Z,100893.23
2024-03-07T04:09:35.913Z,100891.83
2024-03-07T04:12:03.326Z,100893.01
2024-03-07T04:14:34.098Z,100895.41
2024-03-07T04:17:01.408Z,100896.46
2024-03-07T04:19:28.943Z,100898.23
2024-03-07T04:21:56.186Z,100893.59
2024-03-07T04:24:23.446Z,100899.29
2024-03-07T04:26:50.747Z,100903.79
2024-03-07T04:29:18.817Z,100901.78
2024-03-07T04:31:46.627Z,100902.64
2024-03-07T04:34:14.245Z,100905.14
2024-03-07T04:36:42.759Z,100907.27
2024-03-07T04:39:23.568Z,100904.44
2024-03-07T04:41:56.110Z,100906.75
2024-03-07T04:44:26.302Z,100907.19
2024-03-07T04:46:57.848Z,100907.11
2024-03-07T04:49:25.850Z,100902.60
2024-03-07T04:51:56.978Z,100905.52
2024-03-07T04:54:24.784Z,100902.55
2024-03-07T04:56:52.814Z,100906.86
2024-03-07T04:59:21.016Z,100909.13
2024-03-07T05:01:48.978Z,100910.69
2024-03-07T05:04:16.698Z,100910.86
2024-03-07T05:06:44.595Z,100915.71
2024-03-07T05:09:23.986Z,100918.45
2024-03-07T05:11:54.645Z,100916.02
2024-03-07T05:14:23.293Z,100921.38
2024-03-07T05:17:06.021Z,100919.77
2024-03-07T05:19:34.319Z,100924.85
2024-03-07T05:22:02.390Z,100925.55
2024-03-07T05:24:29.694Z,100928.05
2024-03-07T05:26:58.027Z,100932.48
2024-03-07T05:29:25.407Z,100929.88
2024-03-07T05:31:52.802Z,100931.37
2024-03-07T05:34:20.585Z,100932.70
2024-03-07T05:36:48.330Z,100931.57
2024-03-07T05:39:16.847Z,100932.34
2024-03-07T05:41:46.805Z,100933.77
2024-03-07T05:44:14.383Z,100934.98
2024-03-07T05:46:43.299Z,100937.77
2024-03-07T05:49:10.588Z,100939.73
2024-03-07T05:51:37.817Z,100942.04
2024-03-07T05:54:07.929Z,100937.08
2024-03-07T05:56:38.249Z,100940.23
2024-03-07T05:59:05.658Z,100937.58
2024-03-07T06:01:34.036Z,100941.30
2024-03-07T06:04:01.880Z,100941.34
2024-03-07T06:06:29.739Z,100942.04
2024-03-07T06:08:57.857Z,100947.27
2024-03-07T06:11:25.368Z,100947.92
2024-03-07T06:13:52.672Z,100947.20
2024-03-07T06:16:21.495Z,100948.79
2024-03-07T06:18:48.998Z,100950.53
2024-03-07T06:21:17.089Z,100951.11
2024-03-07T06:23:44.763Z,100951.55
2024-03-07T06:26:18.048Z,100952.73
2024-03-07T06:28:46.606Z,100951.38
2024-03-07T06:31:13.896Z,100951.04
2024-03-07T06:33:41.220Z,100948.77
2024-03-07T06:36:10.395Z,100949.45
2024-03-07T06:38:37.839Z,100944.02
2024-03-07T06:41:06.180Z,100950.15
2024-03-07T06:43:33.572Z,100948.02
2024-03-07T06:46:00.812Z,100949.05
2024-03-07T06:48:29.158Z,100950.77
2024-03-07T06:50:56.759Z,100950.73
2024-03-07T06:53:27.475Z,100952.98
2024-03-07T06:55:54.894Z,100958.93
2024-03-07T06:58:22.357Z,100960.60
2024-03-07T07:00:53.140Z,100962.45
2024-03-07T07:03:21.314Z,100963.91
2024-03-07T07:05:48.689Z,100968.05
2024-03-07T07:08:17.127Z,100969.27
2024-03-07T07:10:44.504Z,100963.64
2024-03-07T07:13:12.045Z,100965.65
2024-03-07T07:15:39.277Z,100967.87
2024-03-07T07:18:08.803Z,100972.42
2024-03-07T07:20:36.433Z,100972.77
2024-03-07T07:23:04.847Z,100973.46
2024-03-07T07:25:35.222Z,100978.98
2024-03-07T07:28:05.340Z,100977.92
2024-03-07T07:30:33.147Z,100980.05
2024-03-07T07:33:00.610Z,100979.95
2024-03-07T07:35:28.234Z,100981.85
2024-03-07T07:37:57.496Z,100978.86
2024-03-07T07:40:26.375Z,100979.26
2024-03-07T07:42:54.142Z,100981.15
2024-03-07T07:45:22.681Z,100981.73
2024-03-07T07:47:51.392Z,100987.20
2024-03-07T07:50:19.842Z,100989.54
2024-03-07T07:52:51.329Z,100989.08
2024-03-07T07:55:18.834Z,100985.50
2024-03-07T07:57:46.755Z,100986.44
2024-03-07T08:00:25.165Z,100988.65
2024-03-07T08:02:54.308Z,100986.95
2024-03-07T08:05:24.538Z,100980.64
2024-03-07T08:07:52.782Z,100982.61
2024-03-07T08:10:20.687Z,100985.81
2024-03-07T08:12:48.270Z,100984.43
2024-03-07T08:15:15.780Z,100982.38
2024-03-07T08:17:47.735Z,100983.83
2024-03-07T08:20:19.737Z,100984.91
2024-03-07T08:22:47.363Z,100985.45
2024-03-07T08:25:15.475Z,100991.21
2024-03-07T08:27:43.996Z,100989.09
2024-03-07T08:30:15.461Z,100986.63
2024-03-07T08:32:44.261Z,100987.33
2024-03-07T08:35:12.848Z,100989.09
2024-03-07T08:37:40.939Z,100987.70
2024-03-07T08:40:11.177Z,100989.86
2024-03-07T08:42:38.887Z,100990.23
2024-03-07T08:45:06.761Z,100993.90
2024-03-07T08:47:35.027Z,100999.77
2024-03-07T08:50:02.564Z,101001.50
2024-03-07T08:52:30.027Z,100998.24
2024-03-07T08:54:57.315Z,100998.33
2024-03-07T08:57:24.659Z,100996.68
2024-03-07T08:59:51.995Z,100999.71
2024-03-07T09:02:19.338Z,101003.25
2024-03-07T09:04:47.315Z,101000.06
2024-03-07T09:07:15.953Z,100994.25
2024-03-07T09:09:46.809Z,101000.25
2024-03-07T09:12:14.671Z,101001.48
2024-03-07T09:14:44.993Z,101000.55
2024-03-07T09:17:14.612Z,100999.10
2024-03-07T09:19:42.649Z,100996.64
2024-03-07T09:22:10.307Z,100994.02
2024-03-07T09:24:38.868Z,100996.17
2024-03-07T09:27:06.845Z,100995.86
2024-03-07T09:29:34.516Z,100995.04
2024-03-07T09:32:03.745Z,100992.62
2024-03-07T09:34:32.094Z,100990.89
2024-03-07T09:37:00.232Z,100990.63
2024-03-07T09:39:28.168Z,100987.50
2024-03-07T09:41:56.262Z,100990.23
2024-03-07T09:44:24.226Z,100991.80
2024-03-07T09:46:52.235Z,100992.16
2024-03-07T09:49:19.526Z,100994.04
2024-03-07T09:51:48.088Z,100992.30
2024-03-07T09:54:16.021Z,100991.26
2024-03-07T09:56:43.397Z,100991.42
2024-03-07T09:59:13.305Z,100988.23
2024-03-07T10:01:40.809Z,100990.86
2024-03-07T10:04:12.996Z,100990.67
2024-03-07T10:06:41.004Z,100989.64
2024-03-07T10:09:08.578Z,100985.45
2024-03-07T10:11:36.549Z,100986.74
2024-03-07T10:14:08.429Z,100985.03
2024-03-07T10:16:35.750Z,100987.41
2024-03-07T10:19:05.901Z,100983.40
2024-03-07T10:21:34.958Z,100987.86
2024-03-07T10:24:09.250Z,100979.08
2024-03-07T10:26:39.079Z,100979.14
2024-03-07T10:29:07.024Z,100977.77
2024-03-07T10:31:37.612Z,100980.60
2024-03-07T10:34:09.308Z,100976.23
2024-03-07T10:36:36.937Z,100974.33
2024-03-07T10:39:13.313Z,100974.38
2024-03-07T10:41:45.877Z,100976.49
2024-03-07T10:44:33.958Z,100975.46
2024-03-07T10:47:04.517Z,100973.57
2024-03-07T10:49:34.928Z,100971.94
2024-03-07T10:52:14.410Z,100972.73
2024-03-07T10:54:50.313Z,100972.36
2024-03-07T10:57:33.541Z,100973.63
2024-03-07T11:00:34.377Z,100971.49
2024-03-07T11:03:03.641Z,100974.63
2024-03-07T11:05:31.087Z,100973.74
2024-03-07T11:08:00.290Z,100975.36
2024-03-07T11:10:27.661Z,100973.80
2024-03-07T11:12:54.969Z,100977.34
2024-03-07T11:15:22.220Z,100972.48
2024-03-07T11:17:55.495Z,100969.30
2024-03-07T11:20:27.031Z,100966.79
2024-03-07T11:22:57.465Z,100969.89
2024-03-07T11:25:27.469Z,100972.00
2024-03-07T11:27:59.575Z,100971.30
2024-03-07T11:30:26.973Z,100969.36
2024-03-07T11:32:55.819Z,100963.88
2024-03-07T11:35:38.707Z,100969.33
2024-03-07T11:38:07.979Z,100964.91
2024-03-07T11:40:35.412Z,100962.29
2024-03-07T11:43:06.223Z,100961.42
2024-03-07T11:45:46.231Z,100960.60
2024-03-07T11:48:14.349Z,100962.77
2024-03-07T11:50:42.266Z,100960.48
2024-03-07T11:53:10.227Z,100957.14
2024-03-07T11:55:46.614Z,100956.79
2024-03-07T11:58:17.807Z,100952.02
2024-03-07T12:00:48.867Z,100948.70
2024-03-07T12:03:18.657Z,100948.05
2024-03-07T12:05:46.429Z,100945.12
2024-03-07T12:08:13.785Z,100944.80
2024-03-07T12:10:48.461Z,100946.04
2024-03-07T12:13:17.135Z,100942.41
2024-03-07T12:15:44.676Z,100938.80
2024-03-07T12:18:12.209Z,100940.61
2024-03-07T12:20:40.303Z,100941.19
2024-03-07T12:23:09.798Z,100935.07
2024-03-07T12:25:37.503Z,100937.35
2024-03-07T12:28:31.059Z,100934.39
2024-03-07T12:30:58.573Z,100935.71
2024-03-07T12:33:28.990Z,100934.36
2024-03-07T12:36:07.911Z,100935.16
2024-03-07T12:38:39.742Z,100931.83
2024-03-07T12:41:18.258Z,100933.23
2024-03-07T12:43:49.378Z,100930.58
2024-03-07T12:46:18.591Z,100928.63
2024-03-07T12:48:47.331Z,100929.52
2024-03-07T12:51:19.814Z,100928.27
2024-03-07T12:53:49.081Z,100929.79
2024-03-07T12:56:20.210Z,100928.55
2024-03-07T12:58:50.959Z,100927.14
2024-03-07T13:01:20.906Z,100923.85
2024-03-07T13:03:49.153Z,100922.63
2024-03-07T13:06:20.922Z,100918.21
2024-03-07T13:08:48.615Z,100913.14
2024-03-07T13:11:15.976Z,100916.52
2024-03-07T13:13:43.543Z,100915.84
2024-03-07T13:16:12.647Z,100914.95
2024-03-07T13:18:40.337Z,100916.89
2024-03-07T13:21:08.871Z,100914.44
2024-03-07T13:23:37.745Z,100916.61
2024-03-07T13:26:09.986Z,100915.38
2024-03-07T13:28:37.578Z,100915.54
2024-03-07T13:31:05.138Z,100914.94
2024-03-07T13:33:32.646Z,100913.45
2024-03-07T13:36:02.428Z,100912.36
2024-03-07T13:38:31.006Z,100912.53
2024-03-07T13:40:58.638Z,100907.79
2024-03-07T13:43:26.076Z,100906.23
2024-03-07T13:45:54.012Z,100905.48
2024-03-07T13:48:21.936Z,100905.58
2024-03-07T13:50:58.990Z,100903.46
2024-03-07T13:53:28.906Z,100904.38
2024-03-07T13:56:13.290Z,100898.40
2024-03-07T13:58:52.028Z,100897.89
2024-03-07T14:01:34.404Z,100900.37
2024-03-07T14:04:16.982Z,100897.73
2024-03-07T14:06:47.478Z,100893.71
2024-03-07T14:09:33.369Z,100894.75
2024-03-07T14:12:35.503Z,100895.23
2024-03-07T14:15:26.045Z,100895.77
2024-03-07T14:18:20.293Z,100891.73
2024-03-07T14:21:19.368Z,100891.42
2024-03-07T14:23:47.163Z,100887.80
2024-03-07T14:26:36.792Z,100889.67
2024-03-07T14:29:15.233Z,100888.93
2024-03-07T14:31:45.557Z,100887.48
2024-03-07T14:34:30.657Z,100886.60
2024-03-07T14:37:05.113Z,100882.04
2024-03-07T14:39:36.393Z,100883.13
2024-03-07T14:42:04.677Z,100882.61
2024-03-07T14:44:32.348Z,100881.73
2024-03-07T14:47:02.916Z,100881.23
2024-03-07T14:49:30.168Z,100878.41
2024-03-07T14:52:00.726Z,100877.03
2024-03-07T14:54:29.149Z,100873.67
2024-03-07T14:56:56.704Z,100873.16
2024-03-07T14:59:24.517Z,100874.05
2024-03-07T15:01:52.078Z,100875.11
2024-03-07T15:04:19.415Z,100872.46
2024-03-07T15:06:47.236Z,100872.64
2024-03-07T15:09:15.164Z,100868.23
2024-03-07T15:11:43.845Z,100868.22
2024-03-07T15:14:11.836Z,100864.51
2024-03-07T15:16:40.043Z,100866.27
2024-03-07T15:19:08.955Z,100867.31
2024-03-07T15:21:37.159Z,100866.77
2024-03-07T15:24:05.099Z,100865.70
2024-03-07T15:26:32.698Z,100866.91
2024-03-07T15:29:01.951Z,100863.89
2024-03-07T15:31:29.696Z,100871.14
2024-03-07T15:33:57.033Z,100870.55
2024-03-07T15:36:24.621Z,100872.45
2024-03-07T15:38:52.427Z,100871.53
2024-03-07T15:41:21.118Z,100874.30
2024-03-07T15:43:49.088Z,100882.90
2024-03-07T15:46:18.358Z,100886.21
2024-03-07T15:48:46.851Z,100888.61
2024-03-07T15:51:15.792Z,100888.19
2024-03-07T15:53:44.106Z,100894.30
2024-03-07T15:56:11.694Z,100894.77
2024-03-07T15:58:39.038Z,100899.52
2024-03-07T16:01:07.310Z,100899.42
2024-03-07T16:03:34.658Z,100902.04
2024-03-07T16:06:02.984Z,100904.63
2024-03-07T16:08:30.466Z,100906.84
2024-03-07T16:10:58.058Z,100910.48
2024-03-07T16:13:25.657Z,100915.88
2024-03-07T16:17:00.377Z,100929.76
2024-03-07T16:19:27.860Z,100933.20
2024-03-07T16:21:55.300Z,100934.41
2024-03-07T16:24:22.585Z,100935.39
2024-03-07T16:26:50.520Z,100939.94
2024-03-07T16:29:18.043Z,100938.63
2024-03-07T16:31:46.255Z,100940.86
2024-03-07T16:34:14.311Z,100943.42
2024-03-07T16:36:41.684Z,100946.72
2024-03-07T16:39:13.311Z,100946.98
2024-03-07T16:41:41.761Z,100952.93
2024-03-07T16:44:09.774Z,100954.27
2024-03-07T16:46:37.969Z,100955.64
2024-03-07T16:49:09.374Z,100958.41
2024-03-07T16:51:37.007Z,100953.77
2024-03-07T16:54:06.813Z,100956.36
2024-03-07T16:56:38.406Z,100959.80
2024-03-07T16:59:06.154Z,100957.79
2024-03-07T17:01:33.651Z,100961.05
2024-03-07T17:04:01.311Z,100965.41
2024-03-07T17:06:28.689Z,100963.23
2024-03-07T17:08:55.977Z,100964.43
2024-03-07T17:11:23.448Z,100962.96
2024-03-07T17:13:51.000Z,100971.41
2024-03-07T17:16:18.353Z,100965.79
2024-03-07T17:18:45.717Z,100972.98
2024-03-07T17:21:14.739Z,100974.23
2024-03-07T17:23:42.374Z,100975.83
2024-03-07T17:26:09.654Z,100977.05
2024-03-07T17:28:36.913Z,100976.35
2024-03-07T17:31:06.760Z,100979.13
2024-03-07T17:33:34.202Z,100974.66
2024-03-07T17:36:07.269Z,100978.99
2024-03-07T17:38:34.977Z,100977.39
2024-03-07T17:41:02.449Z,100975.73
2024-03-07T17:43:29.728Z,100973.75
2024-03-07T17:46:00.507Z,100975.45
2024-03-07T17:48:29.752Z,100973.08
2024-03-07T17:50:58.962Z,100974.27
2024-03-07T17:53:27.307Z,100978.23
2024-03-07T17:55:56.879Z,100977.63
2024-03-07T17:58:25.172Z,100981.25
2024-03-07T18:00:54.418Z,100979.92
2024-03-07T18:03:21.900Z,100984.61
2024-03-07T18:05:53.133Z,100981.00
2024-03-07T18:08:34.652Z,100982.52
2024-03-07T18:11:14.542Z,100983.48
2024-03-07T18:13:43.109Z,100986.41
2024-03-07T18:16:11.469Z,100981.90
2024-03-07T18:18:40.209Z,100982.17
2024-03-07T18:21:10.297Z,100978.54
2024-03-07T18:23:37.951Z,100983.84
2024-03-07T18:26:08.698Z,100983.77
2024-03-07T18:28:37.494Z,100982.00
2024-03-07T18:31:13.592Z,100982.80
2024-03-07T18:33:44.057Z,100982.10
2024-03-07T18:36:14.892Z,100987.10
2024-03-07T18:38:42.644Z,100985.08
2024-03-07T18:41:11.261Z,100985.33
2024-03-07T18:43:40.573Z,100986.80
2024-03-07T18:46:09.564Z,100989.11
2024-03-07T18:48:37.875Z,100988.42
2024-03-07T18:51:07.149Z,100981.88
2024-03-07T18:53:35.940Z,100983.25
2024-03-07T18:56:12.656Z,100986.14
2024-03-07T18:58:40.330Z,100988.25
2024-03-07T19:01:08.759Z,100984.07
2024-03-07T19:03:36.339Z,100984.33
2024-03-07T19:06:04.204Z,100988.11
2024-03-07T19:08:32.018Z,100985.70
2024-03-07T19:10:59.943Z,100988.23
2024-03-07T19:13:31.072Z,100988.83
2024-03-07T19:16:02.229Z,100986.64
2024-03-07T19:18:29.852Z,100991.61
2024-03-07T19:20:57.395Z,100991.52
2024-03-07T19:23:26.105Z,100989.64
2024-03-07T19:25:54.142Z,100988.87
2024-03-07T19:28:21.665Z,100988.08
2024-03-07T19:30:51.516Z,100987.39
2024-03-07T19:33:19.882Z,100989.44
2024-03-07T19:35:47.693Z,100992.14
2024-03-07T19:38:15.246Z,100988.04
2024-03-07T19:40:42.816Z,100989.11
2024-03-07T19:43:10.096Z,100985.46
2024-03-07T19:45:41.583Z,100980.63
2024-03-07T19:48:12.620Z,100977.89
2024-03-07T19:50:40.765Z,100974.47
2024-03-07T19:53:14.393Z,100974.91
2024-03-07T19:55:43.191Z,100977.66
2024-03-07T19:58:10.640Z,100978.67
2024-03-07T20:00:38.094Z,100978.46
2024-03-07T20:03:08.328Z,100979.41
2024-03-07T20:05:35.887Z,100978.49
2024-03-07T20:08:07.389Z,100979.41
2024-03-07T20:10:34.887Z,100978.27
2024-03-07T20:13:03.033Z,100976.56
2024-03-07T20:15:30.453Z,100972.62
2024-03-07T20:17:58.065Z,100974.20
2024-03-07T20:20:25.764Z,100973.86
2024-03-07T20:22:56.010Z,100972.20
2024-03-07T20:25:23.493Z,100970.19
2024-03-07T20:27:53.991Z,100968.25
2024-03-07T20:30:21.307Z,100969.59
2024-03-07T20:32:49.510Z,100966.13
2024-03-07T20:35:19.582Z,100964.77
2024-03-07T20:37:50.294Z,100968.14
2024-03-07T20:40:19.070Z,100969.44
2024-03-07T20:42:46.524Z,100965.95
2024-03-07T20:45:16.203Z,100960.30
2024-03-07T20:47:49.409Z,100958.68
2024-03-07T20:50:18.216Z,100954.05
2024-03-07T20:52:46.188Z,100957.28
2024-03-07T20:55:18.357Z,100957.45
2024-03-07T20:57:53.436Z,100959.30
2024-03-07T21:00:41.806Z,100961.38
2024-03-07T21:03:09.414Z,100961.11
2024-03-07T21:05:38.515Z,100960.63
2024-03-07T21:08:06.545Z,100962.64
2024-03-07T21:10:36.294Z,100963.19
2024-03-07T21:13:04.170Z,100963.64
2024-03-07T21:15:31.439Z,100963.00
2024-03-07T21:17:59.457Z,100964.86
2024-03-07T21:20:29.233Z,100965.52
2024-03-07T21:22:56.584Z,100962.27
2024-03-07T21:25:23.960Z,100960.65
2024-03-07T21:27:51.671Z,100961.81
2024-03-07T21:30:22.168Z,100960.27
2024-03-07T21:32:49.710Z,100958.21
2024-03-07T21:35:17.520Z,100952.96
2024-03-07T21:37:45.358Z,100949.73
2024-03-07T21:40:17.514Z,100951.09
2024-03-07T21:42:51.837Z,100945.10
2024-03-07T21:45:19.688Z,100941.73
2024-03-07T21:47:47.870Z,100938.80
2024-03-07T21:50:16.980Z,100937.98
2024-03-07T21:52:46.555Z,100936.67
2024-03-07T21:55:14.130Z,100934.78
2024-03-07T21:57:44.492Z,100933.04
2024-03-07T22:00:19.968Z,100934.83
2024-03-07T22:02:57.827Z,100932.85
2024-03-07T22:05:30.111Z,100931.73
2024-03-07T22:07:59.568Z,100930.27
2024-03-07T22:10:28.585Z,100928.70
2024-03-07T22:12:56.687Z,100934.33
2024-03-07T22:15:24.590Z,100933.88
2024-03-07T22:17:54.335Z,100932.48
2024-03-07T22:20:24.709Z,100936.04
2024-03-07T22:22:53.071Z,100934.39
2024-03-07T22:25:22.974Z,100932.29
2024-03-07T22:27:51.940Z,100939.02
2024-03-07T22:30:23.485Z,100938.79
2024-03-07T22:32:53.747Z,100937.55
2024-03-07T22:35:21.676Z,100937.52
2024-03-07T22:37:52.316Z,100936.77
2024-03-07T22:40:29.109Z,100938.26
2024-03-07T22:42:56.440Z,100937.17
2024-03-07T22:45:24.228Z,100931.80
2024-03-07T22:47:53.687Z,100933.23
2024-03-07T22:50:28.378Z,100930.27
2024-03-07T22:53:02.982Z,100929.74
2024-03-07T22:55:31.439Z,100927.81
2024-03-07T22:57:59.423Z,100924.61
2024-03-07T23:00:29.118Z,100920.10
2024-03-07T23:03:01.439Z,100917.70
2024-03-07T23:05:30.451Z,100912.94
2024-03-07T23:08:00.772Z,100912.04
2024-03-07T23:10:28.981Z,100912.48
2024-03-07T23:12:58.366Z,100913.27
2024-03-07T23:15:28.457Z,100919.93
2024-03-07T23:17:56.474Z,100923.42
2024-03-07T23:20:26.342Z,100918.58
2024-03-07T23:22:56.178Z,100917.09
2024-03-07T23:25:24.214Z,100911.48
2024-03-07T23:27:53.591Z,100907.48
2024-03-07T23:30:23.405Z,100903.88
2024-03-07T23:32:52.629Z,100900.45
2024-03-07T23:35:20.230Z,100896.60
2024-03-07T23:37:47.870Z,100894.42
2024-03-07T23:40:15.649Z,100892.61
2024-03-07T23:42:43.893Z,100892.84
2024-03-07T23:45:13.681Z,100895.27
2024-03-07T23:47:42.963Z,100896.38
2024-03-07T23:50:14.296Z,100895.96
2024-03-07T23:52:42.563Z,100894.05
2024-03-07T23:55:13.684Z,100898.02
2024-03-07T23:57:43.548Z,100889.98
